Time;durP1;ratioP1;P1;durP2;ratioP2;P2;SDS_P1;SDS_P2;PMS_P1;PMS_P2;Temp;Humidity;BMP_temperature;BMP_pressure;BME280_temperature;BME280_humidity;BME280_pressure;Samples;Min_cycle;Max_cycle;Signal;HPM_P1;HPM_P2
2023/09/29 00:01:38;;;;;;;8.15;2.75;;;15.80;99.90;;;;;;5021869;28;20037;-74
2023/09/29 00:04:05;;;;;;;11.15;3.22;;;15.70;99.90;;;;;;5003487;28;20069;-75
2023/09/29 00:06:34;;;;;;;8.30;3.15;;;15.80;99.90;;;;;;5016437;28;20473;-75
2023/09/29 00:09:12;;;;;;;5.88;2.72;;;15.80;99.90;;;;;;5010583;28;20041;-75
2023/09/29 00:11:38;;;;;;;8.05;3.20;;;15.70;99.90;;;;;;5021581;28;20053;-75
2023/09/29 00:14:03;;;;;;;9.95;3.63;;;15.80;99.90;;;;;;5022431;28;20034;-75
2023/09/29 00:16:29;;;;;;;5.10;2.50;;;15.70;99.90;;;;;;5021764;28;20063;-74
2023/09/29 00:18:55;;;;;;;8.68;2.88;;;15.80;99.90;;;;;;5022678;28;20120;-75
2023/09/29 00:21:21;;;;;;;13.55;3.65;;;15.70;99.90;;;;;;5022024;28;20136;-75
2023/09/29 00:23:47;;;;;;;7.93;3.17;;;15.80;99.90;;;;;;5009535;28;20037;-75
2023/09/29 00:26:13;;;;;;;8.35;2.58;;;15.70;99.90;;;;;;5011741;28;20131;-75
2023/09/29 00:28:38;;;;;;;8.30;3.03;;;15.70;99.90;;;;;;5023097;28;20042;-76
2023/09/29 00:31:05;;;;;;;13.35;3.38;;;15.70;99.90;;;;;;5029305;28;20099;-75
2023/09/29 00:33:32;;;;;;;4.47;2.35;;;15.70;99.90;;;;;;5016759;28;20536;-75
2023/09/29 00:35:59;;;;;;;7.70;3.22;;;15.70;99.90;;;;;;5029097;28;20096;-75
2023/09/29 00:38:25;;;;;;;6.75;2.40;;;15.70;99.90;;;;;;5028527;28;20056;-75
2023/09/29 00:40:51;;;;;;;7.32;3.33;;;15.80;99.90;;;;;;5028481;28;20071;-75
2023/09/29 00:43:17;;;;;;;5.97;2.90;;;15.70;99.90;;;;;;5027399;28;20045;-76
2023/09/29 00:45:43;;;;;;;9.45;3.65;;;15.70;99.90;;;;;;5011748;28;20132;-75
2023/09/29 00:48:10;;;;;;;8.80;2.88;;;15.70;99.90;;;;;;5028733;28;20037;-77
2023/09/29 00:50:39;;;;;;;10.98;3.53;;;15.80;99.90;;;;;;5011498;28;20050;-75
2023/09/29 00:53:11;;;;;;;4.30;2.42;;;15.70;99.90;;;;;;5029153;28;20041;-75
2023/09/29 00:55:40;;;;;;;6.60;3.03;;;15.70;99.90;;;;;;5012202;28;20128;-75
2023/09/29 00:58:06;;;;;;;7.65;3.05;;;15.70;99.90;;;;;;5011484;28;20122;-75
2023/09/29 01:00:36;;;;;;;9.38;3.17;;;15.70;99.90;;;;;;5021141;28;20037;-75
2023/09/29 01:03:08;;;;;;;7.97;2.90;;;15.70;99.90;;;;;;5027930;28;20061;-75
2023/09/29 01:05:42;;;;;;;;;;;15.70;99.90;;;;;;5011696;28;20041;-75
2023/09/29 01:08:12;;;;;;;8.73;2.65;;;15.70;99.90;;;;;;4997130;28;19966;-75
2023/09/29 01:10:38;;;;;;;11.35;2.92;;;15.70;99.90;;;;;;5007477;28;20045;-75
2023/09/29 01:15:44;;;;;;;9.70;2.90;;;15.60;99.90;;;;;;5004814;26;20549;-75
2023/09/29 01:18:10;;;;;;;9.52;3.25;;;15.70;99.90;;;;;;5006749;28;20053;-76
2023/09/29 01:20:37;;;;;;;8.20;2.92;;;15.70;99.90;;;;;;5008094;28;20046;-74
2023/09/29 01:23:03;;;;;;;10.65;3.15;;;15.60;99.90;;;;;;5008879;28;20046;-75
2023/09/29 01:25:29;;;;;;;6.03;2.67;;;15.60;99.90;;;;;;5006532;28;20057;-75
2023/09/29 01:27:56;;;;;;;11.32;3.35;;;15.60;99.90;;;;;;5008935;28;20073;-75
2023/09/29 01:30:24;;;;;;;9.88;4.28;;;15.70;99.90;;;;;;5008737;28;20049;-75
2023/09/29 01:32:53;;;;;;;5.28;2.65;;;15.60;99.90;;;;;;5007867;28;20459;-76
2023/09/29 01:35:23;;;;;;;4.25;2.80;;;15.70;99.90;;;;;;5007468;28;20065;-75
2023/09/29 01:37:50;;;;;;;7.95;2.28;;;15.60;99.90;;;;;;5006787;28;20045;-75
2023/09/29 01:40:16;;;;;;;7.63;2.92;;;15.60;99.90;;;;;;4989315;28;20050;-75
2023/09/29 01:42:43;;;;;;;12.00;2.53;;;15.60;99.90;;;;;;5005346;28;20042;-75
2023/09/29 01:45:16;;;;;;;7.90;2.53;;;15.60;99.90;;;;;;4988224;28;20060;-76
2023/09/29 01:47:51;;;;;;;7.18;2.50;;;15.60;99.90;;;;;;5003878;28;20057;-75
2023/09/29 01:50:19;;;;;;;7.65;3.03;;;15.70;99.90;;;;;;5005137;28;20045;-75
2023/09/29 01:52:46;;;;;;;9.20;2.42;;;15.60;99.90;;;;;;5004401;28;20042;-75
2023/09/29 01:55:19;;;;;;;8.45;2.40;;;15.60;99.90;;;;;;5002631;28;20065;-75
2023/09/29 01:57:47;;;;;;;7.68;2.42;;;15.60;99.90;;;;;;5006106;28;20137;-74
2023/09/29 02:00:19;;;;;;;7.70;2.42;;;15.60;99.90;;;;;;5003804;28;20069;-75
2023/09/29 02:02:46;;;;;;;5.40;2.42;;;15.60;99.90;;;;;;5004174;28;20061;-75
2023/09/29 02:05:12;;;;;;;8.60;2.47;;;15.60;99.90;;;;;;5004071;28;20526;-75
2023/09/29 02:07:39;;;;;;;10.27;2.95;;;15.60;99.90;;;;;;5004510;28;20061;-75
2023/09/29 02:10:07;;;;;;;7.70;2.83;;;15.60;99.90;;;;;;5003229;28;20038;-75
2023/09/29 02:12:34;;;;;;;7.75;2.83;;;15.60;99.90;;;;;;5003779;28;20045;-75
2023/09/29 02:15:00;;;;;;;7.32;3.17;;;15.60;99.90;;;;;;5005221;28;20057;-75
2023/09/29 02:17:27;;;;;;;6.07;2.05;;;15.70;99.90;;;;;;5003463;28;20439;-75
2023/09/29 02:19:53;;;;;;;9.93;2.35;;;15.70;99.90;;;;;;5005083;28;20045;-75
2023/09/29 02:22:20;;;;;;;7.80;2.47;;;15.60;99.90;;;;;;5004657;28;20048;-75
2023/09/29 02:24:45;;;;;;;15.40;2.90;;;15.70;99.90;;;;;;5004020;28;20049;-75
2023/09/29 02:27:11;;;;;;;6.47;4.18;;;15.60;99.90;;;;;;5003117;28;20049;-75
2023/09/29 02:29:37;;;;;;;7.88;2.75;;;15.60;99.90;;;;;;5004403;28;20042;-75
2023/09/29 02:32:02;;;;;;;7.78;2.70;;;15.60;99.90;;;;;;5003286;28;20480;-75
2023/09/29 02:34:28;;;;;;;6.47;2.03;;;15.60;99.90;;;;;;5003159;28;20596;-76
2023/09/29 02:36:54;;;;;;;7.18;1.95;;;15.60;99.90;;;;;;5004070;28;20064;-75
2023/09/29 02:39:20;;;;;;;6.00;2.17;;;15.60;99.90;;;;;;4985498;28;20491;-75
2023/09/29 02:41:46;;;;;;;4.47;2.50;;;15.60;99.90;;;;;;5003804;28;20051;-74
2023/09/29 02:44:11;;;;;;;12.45;3.42;;;15.60;99.90;;;;;;5002730;28;20059;-74
2023/09/29 02:46:37;;;;;;;8.10;2.22;;;15.60;99.90;;;;;;5004118;28;20049;-75
2023/09/29 02:49:07;;;;;;;5.43;2.40;;;15.60;99.90;;;;;;5002661;28;20137;-75
2023/09/29 02:51:33;;;;;;;8.88;3.10;;;15.60;99.90;;;;;;5003765;28;20707;-75
2023/09/29 02:53:59;;;;;;;11.02;2.28;;;15.70;99.90;;;;;;5002790;28;20077;-75
2023/09/29 02:56:25;;;;;;;5.80;2.30;;;15.60;99.90;;;;;;5003186;28;20152;-75
2023/09/29 02:58:54;;;;;;;5.38;1.95;;;15.60;99.90;;;;;;5002817;28;20532;-75
2023/09/29 03:01:20;;;;;;;7.15;2.13;;;15.70;99.90;;;;;;4985037;28;20054;-75
2023/09/29 03:03:46;;;;;;;6.07;2.15;;;15.70;99.90;;;;;;5000383;28;20129;-75
2023/09/29 03:06:23;;;;;;;6.82;2.40;;;15.70;99.90;;;;;;4987222;28;20119;-75
2023/09/29 03:08:56;;;;;;;4.93;2.22;;;15.70;99.90;;;;;;5003266;28;20046;-75
2023/09/29 03:11:22;;;;;;;7.22;1.80;;;15.70;99.90;;;;;;5004288;28;20045;-75
2023/09/29 03:13:49;;;;;;;10.65;2.92;;;15.70;99.90;;;;;;5002591;28;20081;-74
2023/09/29 03:16:14;;;;;;;4.35;1.80;;;15.70;99.90;;;;;;5001517;28;20090;-76
2023/09/29 03:18:40;;;;;;;8.10;2.28;;;15.70;99.90;;;;;;5003091;28;20116;-75
2023/09/29 03:21:07;;;;;;;10.15;2.55;;;15.70;99.90;;;;;;4986871;28;20061;-75
2023/09/29 03:23:37;;;;;;;6.22;2.00;;;15.70;99.90;;;;;;5002804;28;20052;-75
2023/09/29 03:26:03;;;;;;;8.23;2.00;;;15.70;99.90;;;;;;5002557;28;20053;-74
2023/09/29 03:28:29;;;;;;;6.10;2.40;;;15.80;99.90;;;;;;5002078;28;20065;-75
2023/09/29 03:30:55;;;;;;;6.72;1.85;;;15.70;99.90;;;;;;5002691;28;20073;-75
2023/09/29 03:33:20;;;;;;;5.80;2.45;;;15.80;99.90;;;;;;5003649;28;20033;-74
2023/09/29 03:35:47;;;;;;;5.13;2.22;;;15.80;99.90;;;;;;5003913;28;20084;-75
2023/09/29 03:38:14;;;;;;;7.35;2.13;;;15.80;99.90;;;;;;5001256;28;20141;-74
2023/09/29 03:40:46;;;;;;;8.55;2.33;;;15.80;99.90;;;;;;4985673;28;20046;-76
2023/09/29 03:43:11;;;;;;;2.90;2.25;;;15.80;99.90;;;;;;5001905;28;20396;-75
2023/09/29 03:45:38;;;;;;;8.25;1.80;;;15.80;99.90;;;;;;5004266;28;20037;-74
2023/09/29 03:48:05;;;;;;;5.20;2.88;;;15.90;99.90;;;;;;5003009;28;20610;-75
2023/09/29 03:50:30;;;;;;;9.63;2.13;;;15.90;99.90;;;;;;5002271;28;20054;-75
2023/09/29 03:52:56;;;;;;;7.15;2.58;;;15.80;99.90;;;;;;5003364;28;20116;-75
2023/09/29 03:55:21;;;;;;;5.80;1.83;;;15.90;99.90;;;;;;5000451;28;20092;-75
2023/09/29 03:57:48;;;;;;;4.60;1.92;;;15.90;99.90;;;;;;5003599;28;20109;-74
2023/09/29 04:00:17;;;;;;;10.50;1.95;;;15.90;99.90;;;;;;5001349;28;20132;-75
2023/09/29 04:02:44;;;;;;;10.05;2.15;;;15.90;99.90;;;;;;5001650;28;20049;-76
2023/09/29 04:05:10;;;;;;;7.20;2.90;;;15.90;99.90;;;;;;5001497;28;20092;-75
2023/09/29 04:07:37;;;;;;;3.90;2.22;;;15.90;99.90;;;;;;5003269;28;20049;-75
2023/09/29 04:10:04;;;;;;;4.65;1.63;;;15.90;99.90;;;;;;5001229;28;20125;-75
2023/09/29 04:12:29;;;;;;;7.75;2.45;;;15.90;99.90;;;;;;5001229;28;20049;-75
2023/09/29 04:14:55;;;;;;;9.18;1.77;;;15.90;99.90;;;;;;4985501;28;20042;-75
2023/09/29 04:17:21;;;;;;;4.25;2.00;;;16.00;99.90;;;;;;5001613;28;20064;-75
2023/09/29 04:19:46;;;;;;;11.35;1.50;;;16.00;99.90;;;;;;5000884;28;20132;-75
2023/09/29 04:22:12;;;;;;;8.30;2.63;;;16.00;99.90;;;;;;4985661;28;20046;-75
2023/09/29 04:24:39;;;;;;;9.40;2.70;;;16.00;99.90;;;;;;5000593;28;20079;-75
2023/09/29 04:27:05;;;;;;;5.10;2.47;;;16.00;99.90;;;;;;5001459;28;20052;-75
2023/09/29 04:29:31;;;;;;;7.30;1.67;;;16.00;99.90;;;;;;5002890;28;20096;-74
2023/09/29 04:31:57;;;;;;;6.15;2.22;;;16.00;99.90;;;;;;4985007;28;20042;-75
2023/09/29 04:34:23;;;;;;;5.32;1.88;;;16.00;99.90;;;;;;5001268;28;20752;-75
2023/09/29 04:36:48;;;;;;;8.60;1.77;;;16.00;99.90;;;;;;5002838;28;20069;-75
2023/09/29 04:39:15;;;;;;;6.00;1.75;;;16.10;99.90;;;;;;5001721;28;20050;-76
2023/09/29 04:41:40;;;;;;;6.78;2.33;;;16.10;99.90;;;;;;5001195;28;20050;-76
2023/09/29 04:44:06;;;;;;;6.10;1.88;;;16.10;99.90;;;;;;5002866;28;20433;-76
2023/09/29 04:46:34;;;;;;;8.73;2.25;;;16.00;99.90;;;;;;5001305;28;20042;-75
2023/09/29 04:49:03;;;;;;;4.30;1.83;;;16.00;99.90;;;;;;5000771;28;20053;-76
2023/09/29 04:51:36;;;;;;;8.43;3.08;;;16.00;99.90;;;;;;5002043;28;20046;-76
2023/09/29 04:54:02;;;;;;;5.50;2.63;;;16.00;99.90;;;;;;5000659;28;20733;-78
2023/09/29 04:56:28;;;;;;;6.70;2.78;;;16.10;99.90;;;;;;5000571;28;20073;-74
2023/09/29 04:58:54;;;;;;;14.57;2.75;;;16.00;99.90;;;;;;5001783;28;20704;-75
2023/09/29 05:01:20;;;;;;;4.57;3.03;;;16.00;99.90;;;;;;5001192;28;20081;-75
2023/09/29 05:03:50;;;;;;;5.72;2.42;;;16.00;99.90;;;;;;4988957;28;20076;-74
2023/09/29 05:06:16;;;;;;;7.60;2.95;;;16.00;99.90;;;;;;4999747;28;20077;-75
2023/09/29 05:08:44;;;;;;;6.18;2.08;;;16.00;99.90;;;;;;4992535;28;20045;-76
2023/09/29 05:11:22;;;;;;;10.63;2.75;;;16.00;99.90;;;;;;4998609;28;20108;-77
2023/09/29 05:13:52;;;;;;;4.95;2.50;;;16.00;99.90;;;;;;4989197;28;20543;-76
2023/09/29 05:16:17;;;;;;;7.32;2.40;;;16.00;99.90;;;;;;4990442;28;20038;-76
2023/09/29 05:18:44;;;;;;;7.32;2.35;;;16.00;99.90;;;;;;5005246;28;20045;-77
2023/09/29 05:21:13;;;;;;;9.13;2.58;;;16.00;99.90;;;;;;5005169;28;20092;-76
2023/09/29 05:23:38;;;;;;;5.20;2.22;;;16.00;99.90;;;;;;4998206;28;20073;-78
2023/09/29 05:26:07;;;;;;;4.50;2.05;;;16.00;99.90;;;;;;4992529;28;20528;-79
2023/09/29 05:28:32;;;;;;;8.07;2.20;;;16.00;99.90;;;;;;5004126;28;20046;-75
2023/09/29 05:30:59;;;;;;;6.15;2.10;;;16.00;99.90;;;;;;5006020;28;20845;-74
2023/09/29 05:33:24;;;;;;;7.43;2.47;;;16.00;99.90;;;;;;4994956;28;20050;-74
2023/09/29 05:35:50;;;;;;;6.43;2.60;;;16.00;99.90;;;;;;4998346;28;20061;-74
2023/09/29 05:38:16;;;;;;;6.68;2.20;;;16.00;99.90;;;;;;5001144;28;20440;-75
2023/09/29 05:40:43;;;;;;;7.60;3.05;;;16.00;99.90;;;;;;5000300;28;20072;-74
2023/09/29 05:43:12;;;;;;;5.80;2.83;;;16.00;99.90;;;;;;5001875;28;20042;-74
2023/09/29 05:45:37;;;;;;;5.97;2.47;;;16.00;99.90;;;;;;5004332;28;20556;-72
2023/09/29 05:48:04;;;;;;;5.60;2.42;;;16.00;99.90;;;;;;5002457;28;20152;-74
2023/09/29 05:50:30;;;;;;;4.57;1.98;;;16.00;99.90;;;;;;4996282;28;20499;-74
2023/09/29 05:52:56;;;;;;;8.13;1.98;;;16.00;99.90;;;;;;5001968;28;20144;-74
2023/09/29 05:55:22;;;;;;;5.32;3.28;;;16.00;99.90;;;;;;5004396;28;20500;-74
2023/09/29 05:57:49;;;;;;;6.75;2.50;;;16.00;99.90;;;;;;5005601;28;20045;-73
2023/09/29 06:00:15;;;;;;;8.15;2.80;;;16.00;99.90;;;;;;5002125;28;20050;-73
2023/09/29 06:02:41;;;;;;;6.13;2.58;;;16.00;99.90;;;;;;4994492;28;20038;-77
2023/09/29 06:05:07;;;;;;;6.75;2.35;;;16.00;99.90;;;;;;5002914;28;20038;-76
2023/09/29 06:07:33;;;;;;;5.20;2.25;;;16.00;99.90;;;;;;4994727;28;20455;-76
2023/09/29 06:09:59;;;;;;;4.57;2.75;;;16.00;99.90;;;;;;4996528;28;20058;-76
2023/09/29 06:12:25;;;;;;;6.13;2.38;;;16.00;99.90;;;;;;4993762;28;20667;-76
2023/09/29 06:14:50;;;;;;;5.93;2.08;;;16.00;99.90;;;;;;4994130;28;20062;-75
2023/09/29 06:17:16;;;;;;;6.90;2.47;;;16.00;99.90;;;;;;4999228;28;20046;-75
2023/09/29 06:19:41;;;;;;;8.23;2.45;;;16.00;99.90;;;;;;5003252;28;20068;-77
2023/09/29 06:22:07;;;;;;;5.75;2.42;;;16.00;99.90;;;;;;5003434;28;20034;-75
2023/09/29 06:24:33;;;;;;;7.68;2.30;;;16.00;99.90;;;;;;5001360;28;20037;-75
2023/09/29 06:26:59;;;;;;;6.03;2.35;;;16.00;99.90;;;;;;4997111;28;20049;-75
2023/09/29 06:29:24;;;;;;;5.65;2.78;;;16.00;99.90;;;;;;5003991;28;20038;-75
2023/09/29 06:31:50;;;;;;;8.43;2.72;;;16.00;99.90;;;;;;5003317;28;20072;-75
2023/09/29 06:34:16;;;;;;;5.07;2.22;;;16.00;99.90;;;;;;4993679;28;20046;-75
2023/09/29 06:36:43;;;;;;;6.40;2.83;;;16.00;99.90;;;;;;4997685;28;20050;-75
2023/09/29 06:39:09;;;;;;;10.38;2.45;;;16.10;99.90;;;;;;5002027;28;20462;-76
2023/09/29 06:41:34;;;;;;;7.40;2.40;;;16.10;99.90;;;;;;4985982;28;20046;-75
2023/09/29 06:44:00;;;;;;;5.15;1.83;;;16.10;99.90;;;;;;5004781;28;20464;-75
2023/09/29 06:46:25;;;;;;;5.40;2.55;;;16.10;99.90;;;;;;4997982;28;20069;-76
2023/09/29 06:48:52;;;;;;;6.63;2.40;;;16.10;99.90;;;;;;5003423;28;20049;-75
2023/09/29 06:51:18;;;;;;;9.18;2.55;;;16.20;99.90;;;;;;5002403;28;20088;-75
2023/09/29 06:53:43;;;;;;;6.78;2.58;;;16.20;99.90;;;;;;5002254;28;20042;-81
2023/09/29 06:56:09;;;;;;;4.75;2.58;;;16.20;99.90;;;;;;5002543;28;20045;-76
2023/09/29 06:58:36;;;;;;;3.72;2.83;;;16.20;99.90;;;;;;4997378;28;20046;-75
2023/09/29 07:01:02;;;;;;;6.30;3.22;;;16.20;99.90;;;;;;5000920;28;20049;-74
2023/09/29 07:03:31;;;;;;;8.32;2.60;;;16.30;99.90;;;;;;5002383;28;20046;-75
2023/09/29 07:06:01;;;;;;;8.27;2.38;;;16.30;99.90;;;;;;5002355;28;20493;-75
2023/09/29 07:08:27;;;;;;;7.40;2.60;;;16.30;99.90;;;;;;4992980;28;20121;-75
2023/09/29 07:10:53;;;;;;;9.27;2.10;;;16.40;99.90;;;;;;5003175;28;20049;-75
2023/09/29 07:13:19;;;;;;;8.57;2.42;;;16.40;99.90;;;;;;4999402;28;20045;-75
2023/09/29 07:15:47;;;;;;;4.43;2.05;;;16.40;99.90;;;;;;4999550;28;20044;-75
2023/09/29 07:18:13;;;;;;;3.65;2.08;;;16.40;99.90;;;;;;4983553;28;20663;-75
2023/09/29 07:20:39;;;;;;;5.75;2.35;;;16.40;99.90;;;;;;4999391;28;20037;-76
2023/09/29 07:23:05;;;;;;;5.30;2.33;;;16.50;99.90;;;;;;4995099;28;20440;-76
2023/09/29 07:25:31;;;;;;;5.25;2.35;;;16.50;99.90;;;;;;4992373;28;20682;-76
2023/09/29 07:27:56;;;;;;;6.25;3.53;;;16.50;99.90;;;;;;4999860;28;20064;-76
2023/09/29 07:30:22;;;;;;;5.40;2.00;;;16.60;99.90;;;;;;4999678;28;20061;-76
2023/09/29 07:32:47;;;;;;;4.07;2.38;;;16.60;99.90;;;;;;4996299;28;20091;-76
2023/09/29 07:35:14;;;;;;;7.18;2.50;;;16.70;99.90;;;;;;5001366;28;20439;-76
2023/09/29 07:37:40;;;;;;;7.38;2.88;;;16.70;99.90;;;;;;5000166;28;20038;-74
2023/09/29 07:40:09;;;;;;;6.30;2.70;;;16.70;99.90;;;;;;4994916;28;20362;-72
2023/09/29 07:42:35;;;;;;;8.27;3.03;;;16.80;99.90;;;;;;4999851;28;20037;-74
2023/09/29 07:45:01;;;;;;;7.78;2.75;;;16.80;99.90;;;;;;5001865;28;20511;-73
2023/09/29 07:47:27;;;;;;;5.18;2.80;;;16.80;99.90;;;;;;4999961;28;20038;-74
2023/09/29 07:49:52;;;;;;;5.95;2.63;;;16.90;99.90;;;;;;5000677;28;20034;-75
2023/09/29 07:52:18;;;;;;;8.45;2.92;;;16.90;99.90;;;;;;4998973;28;20049;-72
2023/09/29 07:54:44;;;;;;;4.63;2.10;;;17.00;99.90;;;;;;4999824;28;20117;-73
2023/09/29 07:57:09;;;;;;;5.72;2.53;;;17.00;99.90;;;;;;5000375;28;20200;-76
2023/09/29 07:59:35;;;;;;;8.20;2.83;;;17.10;99.90;;;;;;5001088;28;20046;-74
2023/09/29 08:02:00;;;;;;;6.68;2.22;;;17.10;99.90;;;;;;5001371;28;20380;-74
2023/09/29 08:04:26;;;;;;;5.10;2.20;;;17.10;99.90;;;;;;4984285;28;20036;-73
2023/09/29 08:06:52;;;;;;;3.00;1.95;;;17.20;99.90;;;;;;5001100;28;20057;-76
2023/09/29 08:09:18;;;;;;;5.63;2.53;;;17.20;99.90;;;;;;4996126;28;20515;-75
2023/09/29 08:11:43;;;;;;;5.53;2.15;;;17.30;99.90;;;;;;4995249;28;20249;-74
2023/09/29 08:14:09;;;;;;;4.90;2.35;;;17.30;99.90;;;;;;4993873;28;20080;-75
2023/09/29 08:16:38;;;;;;;5.78;2.45;;;17.40;99.90;;;;;;4980038;28;20056;-75
2023/09/29 08:19:05;;;;;;;3.80;2.25;;;17.40;99.90;;;;;;4998422;28;20516;-75
2023/09/29 08:21:33;;;;;;;3.75;2.35;;;17.50;99.90;;;;;;4998450;28;20049;-75
2023/09/29 08:24:01;;;;;;;5.00;2.17;;;17.50;99.90;;;;;;4996405;28;20104;-76
2023/09/29 08:26:28;;;;;;;4.32;2.13;;;17.50;99.90;;;;;;4999495;28;20342;-78
2023/09/29 08:28:56;;;;;;;5.85;2.20;;;17.50;99.90;;;;;;4998857;28;20473;-72
2023/09/29 08:31:22;;;;;;;5.82;2.00;;;17.60;99.90;;;;;;5000528;28;20038;-74
2023/09/29 08:33:48;;;;;;;3.58;1.92;;;17.60;99.90;;;;;;4998672;28;20463;-75
2023/09/29 08:36:13;;;;;;;2.95;2.20;;;17.60;99.90;;;;;;4982345;28;20208;-75
2023/09/29 08:38:39;;;;;;;3.90;2.40;;;17.70;99.90;;;;;;5000873;28;20133;-75
2023/09/29 08:41:05;;;;;;;4.82;1.95;;;17.70;99.90;;;;;;5001723;28;20395;-75
2023/09/29 08:43:33;;;;;;;4.40;1.70;;;17.70;99.90;;;;;;5000749;28;20048;-75
2023/09/29 08:45:59;;;;;;;5.63;2.65;;;17.80;99.90;;;;;;5001239;28;20156;-76
2023/09/29 08:48:32;;;;;;;6.10;2.15;;;17.80;99.90;;;;;;4999868;28;20041;-75
2023/09/29 08:51:01;;;;;;;3.38;1.67;;;17.80;99.90;;;;;;4983573;28;20038;-75
2023/09/29 08:53:31;;;;;;;6.88;2.25;;;17.90;99.90;;;;;;5001742;28;20095;-75
2023/09/29 08:55:57;;;;;;;5.18;2.35;;;17.90;99.90;;;;;;5004288;28;20180;-75
2023/09/29 08:58:23;;;;;;;4.00;2.00;;;18.00;99.90;;;;;;5002939;28;20046;-75
2023/09/29 09:00:50;;;;;;;2.30;1.50;;;18.00;99.90;;;;;;4993723;28;20065;-75
2023/09/29 09:03:17;;;;;;;6.00;1.92;;;18.00;99.90;;;;;;4986523;28;20167;-75
2023/09/29 09:05:43;;;;;;;8.13;2.42;;;18.10;99.90;;;;;;4999338;28;20072;-75
2023/09/29 09:08:11;;;;;;;7.45;2.20;;;18.20;99.90;;;;;;5002475;28;20049;-75
2023/09/29 09:10:37;;;;;;;6.78;2.15;;;18.20;99.90;;;;;;5003451;28;20041;-75
2023/09/29 09:13:08;;;;;;;3.92;2.05;;;18.20;99.90;;;;;;5004268;28;20149;-76
2023/09/29 09:15:34;;;;;;;5.25;2.08;;;18.30;99.90;;;;;;5004358;28;20050;-76
2023/09/29 09:18:00;;;;;;;3.03;2.08;;;18.30;99.90;;;;;;5002687;28;20070;-76
2023/09/29 09:20:26;;;;;;;6.60;2.17;;;18.40;99.90;;;;;;5003220;28;20034;-76
2023/09/29 09:23:00;;;;;;;6.35;2.65;;;18.40;99.90;;;;;;5001721;28;20472;-77
2023/09/29 09:25:38;;;;;;;6.18;2.03;;;18.50;99.90;;;;;;5002549;28;20422;-77
2023/09/29 09:28:05;;;;;;;3.40;1.95;;;18.50;99.90;;;;;;5005034;28;20498;-74
2023/09/29 09:30:36;;;;;;;3.13;2.30;;;18.60;99.90;;;;;;5003243;28;20068;-76
2023/09/29 09:33:05;;;;;;;4.85;2.10;;;18.60;99.90;;;;;;5003734;28;20593;-75
2023/09/29 09:35:31;;;;;;;7.03;2.70;;;18.60;99.90;;;;;;5004651;28;20196;-76
2023/09/29 09:37:59;;;;;;;5.90;2.30;;;18.60;99.90;;;;;;5003350;28;20117;-78
2023/09/29 09:40:25;;;;;;;7.03;3.15;;;18.70;99.90;;;;;;4998812;28;20046;-75
2023/09/29 09:42:58;;;;;;;6.07;2.15;;;18.70;99.90;;;;;;5000140;28;20037;-75
2023/09/29 09:45:34;;;;;;;6.15;2.22;;;18.70;99.90;;;;;;5004115;28;20540;-75
2023/09/29 09:48:03;;;;;;;6.07;2.08;;;18.70;99.90;;;;;;5003340;28;20920;-75
2023/09/29 09:50:31;;;;;;;5.88;2.58;;;18.70;99.90;;;;;;5002130;28;20045;-75
2023/09/29 09:52:59;;;;;;;2.72;2.00;;;18.70;99.90;;;;;;5000405;28;20113;-75
2023/09/29 09:55:39;;;;;;;7.70;2.63;;;18.70;99.90;;;;;;4984195;28;20046;-75
2023/09/29 09:58:09;;;;;;;5.38;3.13;;;18.70;99.90;;;;;;4967137;28;20074;-75
2023/09/29 10:00:54;;;;;;;4.70;2.40;;;18.70;99.90;;;;;;4998671;28;20492;-75
2023/09/29 10:03:21;;;;;;;8.65;2.20;;;18.70;99.90;;;;;;5000809;28;20120;-75
2023/09/29 10:05:52;;;;;;;6.75;2.05;;;18.80;99.90;;;;;;5001003;28;20401;-75
2023/09/29 10:08:30;;;;;;;3.22;2.38;;;18.80;99.90;;;;;;5002612;28;20122;-75
2023/09/29 10:11:13;;;;;;;6.25;1.90;;;18.80;99.90;;;;;;5003213;28;20353;-75
2023/09/29 10:13:44;;;;;;;5.90;2.50;;;18.90;99.90;;;;;;5002322;28;20042;-75
2023/09/29 10:16:23;;;;;;;5.30;2.15;;;18.90;99.90;;;;;;5001979;28;20086;-75
2023/09/29 10:18:56;;;;;;;3.92;2.45;;;18.90;99.90;;;;;;5003409;28;20045;-75
2023/09/29 10:21:22;;;;;;;6.90;2.15;;;18.90;99.90;;;;;;5002307;28;20454;-75
2023/09/29 10:23:50;;;;;;;3.35;2.08;;;19.00;99.90;;;;;;5000083;28;20125;-74
2023/09/29 10:26:16;;;;;;;3.97;2.13;;;19.00;99.90;;;;;;5000461;28;20144;-73
2023/09/29 10:28:45;;;;;;;5.13;2.55;;;19.10;99.90;;;;;;4984607;28;20133;-76
2023/09/29 10:31:17;;;;;;;5.68;2.70;;;19.10;99.90;;;;;;5000489;28;20056;-75
2023/09/29 10:33:53;;;;;;;5.72;2.28;;;19.20;99.90;;;;;;5000454;28;20515;-75
2023/09/29 10:36:25;;;;;;;5.45;2.17;;;19.10;99.90;;;;;;5001224;28;20539;-75
2023/09/29 10:38:51;;;;;;;5.50;3.08;;;19.10;99.90;;;;;;5000373;28;20041;-75
2023/09/29 10:41:23;;;;;;;6.18;2.92;;;19.20;99.90;;;;;;5002907;28;20080;-75
2023/09/29 10:43:50;;;;;;;8.48;2.60;;;19.20;99.90;;;;;;5002682;28;20046;-76
2023/09/29 10:46:16;;;;;;;8.13;2.60;;;19.20;99.90;;;;;;4999326;28;20053;-75
2023/09/29 10:48:49;;;;;;;5.15;2.30;;;19.20;99.90;;;;;;5000701;28;20037;-75
2023/09/29 10:51:31;;;;;;;5.15;2.65;;;19.30;99.90;;;;;;4999663;28;20167;-75
2023/09/29 10:54:08;;;;;;;4.90;2.92;;;19.30;99.90;;;;;;5001732;28;20046;-75
2023/09/29 10:56:35;;;;;;;4.75;2.58;;;19.30;99.90;;;;;;5001218;28;20056;-76
2023/09/29 10:59:06;;;;;;;4.43;3.00;;;19.40;99.90;;;;;;5002894;28;20038;-75
2023/09/29 11:01:33;;;;;;;5.10;2.50;;;19.40;99.90;;;;;;5003439;28;20046;-76
2023/09/29 11:04:05;;;;;;;3.83;3.05;;;19.50;99.90;;;;;;5000800;28;20058;-76
2023/09/29 11:06:43;;;;;;;3.60;1.50;;;19.40;99.90;;;;;;4997880;28;20439;-77
2023/09/29 11:09:15;;;;;;;4.43;1.15;;;19.40;99.90;;;;;;4999415;28;20042;-75
2023/09/29 11:11:41;;;;;;;4.15;1.27;;;19.20;99.90;;;;;;4984825;28;20460;-77
2023/09/29 11:14:06;;;;;;;0.80;0.52;;;19.10;99.90;;;;;;5002486;28;20129;-76
2023/09/29 11:16:33;;;;;;;1.15;1.05;;;18.90;99.90;;;;;;4983892;28;20038;-76
2023/09/29 11:19:10;;;;;;;1.40;0.57;;;18.80;99.90;;;;;;5000661;28;20057;-76
2023/09/29 11:21:37;;;;;;;1.35;0.95;;;18.70;99.90;;;;;;5001334;28;20084;-73
2023/09/29 11:24:10;;;;;;;1.70;0.85;;;18.60;99.90;;;;;;5000792;28;20041;-73
2023/09/29 11:26:45;;;;;;;3.10;0.95;;;18.60;99.90;;;;;;5000817;28;20255;-73
2023/09/29 11:29:25;;;;;;;1.30;0.57;;;18.50;99.90;;;;;;5000859;28;20093;-75
2023/09/29 11:31:51;;;;;;;2.30;1.35;;;18.40;99.90;;;;;;4983952;28;20038;-75
2023/09/29 11:34:17;;;;;;;2.47;0.80;;;18.30;99.90;;;;;;5001349;28;20046;-73
2023/09/29 11:36:43;;;;;;;2.15;1.02;;;18.30;99.90;;;;;;5001562;28;20040;-73
2023/09/29 11:39:10;;;;;;;2.13;0.80;;;18.20;99.90;;;;;;5000556;28;20054;-74
2023/09/29 11:41:36;;;;;;;0.73;0.63;;;18.20;99.90;;;;;;5001060;28;20042;-73
2023/09/29 11:44:02;;;;;;;2.63;1.20;;;18.20;99.90;;;;;;5001610;28;20552;-73
2023/09/29 11:46:27;;;;;;;4.40;1.17;;;18.10;99.90;;;;;;4984295;28;20081;-72
2023/09/29 11:48:53;;;;;;;4.07;1.10;;;18.10;99.90;;;;;;5001565;28;20477;-74
2023/09/29 11:51:19;;;;;;;1.83;1.00;;;18.00;99.90;;;;;;5000066;28;20481;-73
2023/09/29 11:53:45;;;;;;;3.35;1.42;;;17.90;99.90;;;;;;4998531;28;20089;-74
2023/09/29 11:56:10;;;;;;;2.03;1.10;;;17.90;99.90;;;;;;4999819;28;20048;-75
2023/09/29 11:58:37;;;;;;;0.80;0.52;;;17.80;99.90;;;;;;5001388;28;20037;-75
2023/09/29 12:01:03;;;;;;;2.17;0.65;;;17.60;99.90;;;;;;5001526;28;20068;-73
2023/09/29 12:03:29;;;;;;;0.75;0.50;;;17.60;99.90;;;;;;5000730;28;20077;-74
2023/09/29 12:05:56;;;;;;;1.10;0.40;;;17.50;99.90;;;;;;5000404;28;20508;-75
2023/09/29 12:08:22;;;;;;;0.57;0.38;;;17.50;99.90;;;;;;4981246;28;20567;-75
2023/09/29 12:10:47;;;;;;;0.70;0.55;;;17.40;99.90;;;;;;4984090;28;20126;-73
2023/09/29 12:13:15;;;;;;;2.17;0.47;;;17.40;99.90;;;;;;5000805;28;20108;-75
2023/09/29 12:15:45;;;;;;;1.10;0.38;;;17.40;99.90;;;;;;5001432;28;20141;-77
2023/09/29 12:18:11;;;;;;;0.98;0.38;;;17.40;99.90;;;;;;4998631;28;20095;-76
2023/09/29 12:20:41;;;;;;;2.35;0.47;;;17.40;99.90;;;;;;5000117;28;20129;-75
2023/09/29 12:23:08;;;;;;;2.97;0.65;;;17.30;99.90;;;;;;4982603;28;20042;-75
2023/09/29 12:25:38;;;;;;;1.85;0.90;;;17.30;99.90;;;;;;4982339;28;20050;-75
2023/09/29 12:28:04;;;;;;;1.83;0.25;;;17.30;99.90;;;;;;5000557;28;20057;-75
2023/09/29 12:30:30;;;;;;;2.45;0.57;;;17.30;99.90;;;;;;4998874;28;20451;-75
2023/09/29 12:32:56;;;;;;;0.95;0.60;;;17.30;99.90;;;;;;4982352;28;20050;-75
2023/09/29 12:35:22;;;;;;;0.55;0.30;;;17.30;99.90;;;;;;4999107;28;20346;-75
2023/09/29 12:37:47;;;;;;;1.83;0.50;;;17.30;99.90;;;;;;4998978;28;20048;-75
2023/09/29 12:40:15;;;;;;;3.78;0.50;;;17.40;99.90;;;;;;5000064;28;20131;-75
2023/09/29 12:42:47;;;;;;;1.13;0.60;;;17.40;99.90;;;;;;4999539;28;20128;-75
2023/09/29 12:45:23;;;;;;;0.75;0.75;;;17.40;99.90;;;;;;4998950;28;20033;-75
2023/09/29 12:47:53;;;;;;;1.85;0.80;;;17.40;99.90;;;;;;4997814;28;20052;-75
2023/09/29 12:50:21;;;;;;;0.75;0.40;;;17.40;99.90;;;;;;4998968;28;20527;-75